sensor_id;sensor_type;location;lat;lon;timestamp;P1;P2;P0
69349;PMS5003;64554;43.452;4.934;2023-07-13T00:01:32;8.40;8.40;6.40
69349;PMS5003;64554;43.452;4.934;2023-07-13T00:03:58;12.40;12.40;8.20
69349;PMS5003;64554;43.452;4.934;2023-07-13T00:06:27;12.00;12.00;9.00
69349;PMS5003;64554;43.452;4.934;2023-07-13T00:08:59;10.40;10.40;7.40
69349;PMS5003;64554;43.452;4.934;2023-07-13T00:11:26;10.25;9.75;6.75
69349;PMS5003;64554;43.452;4.934;2023-07-13T00:13:52;11.00;11.00;7.00
69349;PMS5003;64554;43.452;4.934;2023-07-13T00:16:19;10.20;10.20;7.80
69349;PMS5003;64554;43.452;4.934;2023-07-13T00:18:49;13.00;11.25;8.00
69349;PMS5003;64554;43.452;4.934;2023-07-13T00:21:15;15.60;13.40;8.00
69349;PMS5003;64554;43.452;4.934;2023-07-13T00:23:42;16.25;13.25;8.50
69349;PMS5003;64554;43.452;4.934;2023-07-13T00:26:09;9.60;8.60;6.60
69349;PMS5003;64554;43.452;4.934;2023-07-13T00:28:38;14.20;14.20;8.40
69349;PMS5003;64554;43.452;4.934;2023-07-13T00:31:05;12.80;11.80;8.80
69349;PMS5003;64554;43.452;4.934;2023-07-13T00:33:34;10.80;10.80;7.80
69349;PMS5003;64554;43.452;4.934;2023-07-13T00:36:02;16.00;16.00;10.00
69349;PMS5003;64554;43.452;4.934;2023-07-13T00:38:29;12.50;12.50;8.00
69349;PMS5003;64554;43.452;4.934;2023-07-13T00:40:55;13.00;13.00;8.00
69349;PMS5003;64554;43.452;4.934;2023-07-13T00:43:22;11.60;11.60;6.80
69349;PMS5003;64554;43.452;4.934;2023-07-13T00:48:17;13.80;12.80;8.80
69349;PMS5003;64554;43.452;4.934;2023-07-13T00:50:45;12.00;11.00;6.60
69349;PMS5003;64554;43.452;4.934;2023-07-13T00:53:13;12.00;10.60;7.00
69349;PMS5003;64554;43.452;4.934;2023-07-13T00:55:39;14.00;12.00;9.00
69349;PMS5003;64554;43.452;4.934;2023-07-13T00:58:06;12.00;10.00;6.80
69349;PMS5003;64554;43.452;4.934;2023-07-13T01:00:36;11.20;11.20;8.00
69349;PMS5003;64554;43.452;4.934;2023-07-13T01:03:04;13.25;12.25;8.00
69349;PMS5003;64554;43.452;4.934;2023-07-13T01:05:32;13.00;10.00;8.00
69349;PMS5003;64554;43.452;4.934;2023-07-13T01:07:59;12.40;11.40;8.40
69349;PMS5003;64554;43.452;4.934;2023-07-13T01:10:26;10.00;10.00;8.00
69349;PMS5003;64554;43.452;4.934;2023-07-13T01:12:53;10.50;9.50;6.75
69349;PMS5003;64554;43.452;4.934;2023-07-13T01:18:25;9.60;9.60;7.60
69349;PMS5003;64554;43.452;4.934;2023-07-13T01:23:22;9.60;9.60;6.60
69349;PMS5003;64554;43.452;4.934;2023-07-13T01:25:49;11.20;11.00;8.00
69349;PMS5003;64554;43.452;4.934;2023-07-13T01:28:16;9.80;8.80;6.20
69349;PMS5003;64554;43.452;4.934;2023-07-13T01:30:43;10.20;10.20;6.20
69349;PMS5003;64554;43.452;4.934;2023-07-13T01:33:16;7.40;7.40;5.40
69349;PMS5003;64554;43.452;4.934;2023-07-13T01:35:44;9.50;9.00;6.00
69349;PMS5003;64554;43.452;4.934;2023-07-13T01:38:11;12.00;9.00;5.25
69349;PMS5003;64554;43.452;4.934;2023-07-13T01:40:38;10.00;10.00;6.60
69349;PMS5003;64554;43.452;4.934;2023-07-13T01:43:04;10.25;8.00;5.25
69349;PMS5003;64554;43.452;4.934;2023-07-13T01:45:31;7.00;7.00;5.00
69349;PMS5003;64554;43.452;4.934;2023-07-13T01:47:58;11.00;10.00;6.50
69349;PMS5003;64554;43.452;4.934;2023-07-13T01:50:25;6.60;6.60;3.80
69349;PMS5003;64554;43.452;4.934;2023-07-13T01:52:52;8.00;8.00;5.00
69349;PMS5003;64554;43.452;4.934;2023-07-13T01:55:19;10.00;6.75;4.75
69349;PMS5003;64554;43.452;4.934;2023-07-13T01:57:46;9.33;7.33;4.67
69349;PMS5003;64554;43.452;4.934;2023-07-13T02:00:13;10.00;7.00;5.00
69349;PMS5003;64554;43.452;4.934;2023-07-13T02:02:40;10.00;7.00;5.00
69349;PMS5003;64554;43.452;4.934;2023-07-13T02:05:10;7.50;6.50;4.50
69349;PMS5003;64554;43.452;4.934;2023-07-13T02:07:37;7.00;6.00;3.60
69349;PMS5003;64554;43.452;4.934;2023-07-13T02:10:04;6.00;6.00;3.60
69349;PMS5003;64554;43.452;4.934;2023-07-13T02:12:31;6.40;6.40;4.40
69349;PMS5003;64554;43.452;4.934;2023-07-13T02:14:57;8.00;8.00;5.00
69349;PMS5003;64554;43.452;4.934;2023-07-13T02:17:25;4.60;4.60;3.20
69349;PMS5003;64554;43.452;4.934;2023-07-13T02:19:52;6.00;5.00;4.00
69349;PMS5003;64554;43.452;4.934;2023-07-13T02:22:18;5.00;5.00;3.60
69349;PMS5003;64554;43.452;4.934;2023-07-13T02:24:45;5.50;5.50;3.00
69349;PMS5003;64554;43.452;4.934;2023-07-13T02:27:11;7.25;7.25;3.50
69349;PMS5003;64554;43.452;4.934;2023-07-13T02:29:38;5.00;5.00;3.20
69349;PMS5003;64554;43.452;4.934;2023-07-13T02:32:05;7.00;5.40;3.00
69349;PMS5003;64554;43.452;4.934;2023-07-13T02:34:31;7.00;7.00;5.00
69349;PMS5003;64554;43.452;4.934;2023-07-13T02:36:58;7.80;5.80;4.00
69349;PMS5003;64554;43.452;4.934;2023-07-13T02:39:25;6.80;6.80;3.80
69349;PMS5003;64554;43.452;4.934;2023-07-13T02:41:51;4.40;4.40;3.00
69349;PMS5003;64554;43.452;4.934;2023-07-13T02:44:18;6.75;4.75;3.00
69349;PMS5003;64554;43.452;4.934;2023-07-13T02:46:44;4.60;4.60;3.60
69349;PMS5003;64554;43.452;4.934;2023-07-13T02:49:11;6.50;4.50;2.50
69349;PMS5003;64554;43.452;4.934;2023-07-13T02:51:38;8.40;5.60;4.00
69349;PMS5003;64554;43.452;4.934;2023-07-13T02:54:04;5.50;5.50;2.50
69349;PMS5003;64554;43.452;4.934;2023-07-13T02:56:31;8.50;5.50;2.50
69349;PMS5003;64554;43.452;4.934;2023-07-13T02:58:58;4.50;3.50;2.25
69349;PMS5003;64554;43.452;4.934;2023-07-13T03:01:24;6.40;4.80;3.40
69349;PMS5003;64554;43.452;4.934;2023-07-13T03:03:51;7.75;7.75;3.25
69349;PMS5003;64554;43.452;4.934;2023-07-13T03:06:18;4.80;4.80;2.80
69349;PMS5003;64554;43.452;4.934;2023-07-13T03:08:45;4.00;4.00;2.00
69349;PMS5003;64554;43.452;4.934;2023-07-13T03:11:14;5.00;4.00;2.00
69349;PMS5003;64554;43.452;4.934;2023-07-13T03:13:41;4.00;4.00;3.00
69349;PMS5003;64554;43.452;4.934;2023-07-13T03:16:08;5.00;5.00;3.00
69349;PMS5003;64554;43.452;4.934;2023-07-13T03:18:36;3.00;3.00;2.00
69349;PMS5003;64554;43.452;4.934;2023-07-13T03:21:03;4.40;4.40;2.40
69349;PMS5003;64554;43.452;4.934;2023-07-13T03:23:31;5.75;4.25;2.00
69349;PMS5003;64554;43.452;4.934;2023-07-13T03:26:05;4.00;4.00;2.40
69349;PMS5003;64554;43.452;4.934;2023-07-13T03:28:31;4.40;4.40;3.40
69349;PMS5003;64554;43.452;4.934;2023-07-13T03:30:59;3.00;3.00;2.00
69349;PMS5003;64554;43.452;4.934;2023-07-13T03:33:25;7.00;7.00;4.00
69349;PMS5003;64554;43.452;4.934;2023-07-13T03:35:52;8.00;8.00;4.00
69349;PMS5003;64554;43.452;4.934;2023-07-13T03:38:18;5.40;5.00;3.00
69349;PMS5003;64554;43.452;4.934;2023-07-13T03:40:46;5.40;4.40;2.40
69349;PMS5003;64554;43.452;4.934;2023-07-13T03:43:12;7.00;5.00;4.00
69349;PMS5003;64554;43.452;4.934;2023-07-13T03:45:39;5.00;5.00;3.00
69349;PMS5003;64554;43.452;4.934;2023-07-13T03:48:05;6.40;5.40;2.40
69349;PMS5003;64554;43.452;4.934;2023-07-13T03:50:32;6.40;5.40;3.40
69349;PMS5003;64554;43.452;4.934;2023-07-13T03:52:59;6.00;6.00;4.00
69349;PMS5003;64554;43.452;4.934;2023-07-13T03:55:26;5.80;5.80;3.00
69349;PMS5003;64554;43.452;4.934;2023-07-13T03:57:54;4.75;4.75;2.75
69349;PMS5003;64554;43.452;4.934;2023-07-13T04:00:23;4.00;4.00;3.00
69349;PMS5003;64554;43.452;4.934;2023-07-13T04:02:50;6.00;4.00;3.00
69349;PMS5003;64554;43.452;4.934;2023-07-13T04:05:17;4.60;4.60;3.60
69349;PMS5003;64554;43.452;4.934;2023-07-13T04:07:45;6.75;5.75;2.75
69349;PMS5003;64554;43.452;4.934;2023-07-13T04:10:11;7.60;4.80;2.80
69349;PMS5003;64554;43.452;4.934;2023-07-13T04:12:38;4.60;4.40;1.60
69349;PMS5003;64554;43.452;4.934;2023-07-13T04:15:04;4.25;4.25;1.50
69349;PMS5003;64554;43.452;4.934;2023-07-13T04:17:31;6.00;6.00;4.00
69349;PMS5003;64554;43.452;4.934;2023-07-13T04:19:58;6.75;5.50;3.50
69349;PMS5003;64554;43.452;4.934;2023-07-13T04:22:24;5.80;3.60;2.20
69349;PMS5003;64554;43.452;4.934;2023-07-13T04:24:53;6.00;5.80;3.40
69349;PMS5003;64554;43.452;4.934;2023-07-13T04:27:20;3.00;3.00;2.50
69349;PMS5003;64554;43.452;4.934;2023-07-13T04:29:50;4.00;4.00;3.00
69349;PMS5003;64554;43.452;4.934;2023-07-13T04:32:18;5.00;4.00;3.00
69349;PMS5003;64554;43.452;4.934;2023-07-13T04:34:44;5.00;5.00;3.00
69349;PMS5003;64554;43.452;4.934;2023-07-13T04:37:11;5.80;3.20;2.20
69349;PMS5003;64554;43.452;4.934;2023-07-13T04:39:37;7.80;4.80;2.80
69349;PMS5003;64554;43.452;4.934;2023-07-13T04:42:04;3.00;3.00;2.00
69349;PMS5003;64554;43.452;4.934;2023-07-13T04:44:31;5.20;3.20;1.60
69349;PMS5003;64554;43.452;4.934;2023-07-13T04:46:57;3.80;3.20;1.60
69349;PMS5003;64554;43.452;4.934;2023-07-13T04:49:23;4.00;4.00;2.75
69349;PMS5003;64554;43.452;4.934;2023-07-13T04:51:50;5.50;5.50;3.00
69349;PMS5003;64554;43.452;4.934;2023-07-13T04:54:16;4.75;4.00;1.75
69349;PMS5003;64554;43.452;4.934;2023-07-13T04:56:43;2.60;2.60;1.60
69349;PMS5003;64554;43.452;4.934;2023-07-13T04:59:09;4.00;4.00;2.25
69349;PMS5003;64554;43.452;4.934;2023-07-13T05:01:36;4.00;3.50;1.00
69349;PMS5003;64554;43.452;4.934;2023-07-13T05:04:03;4.60;4.00;2.40
69349;PMS5003;64554;43.452;4.934;2023-07-13T05:06:29;7.50;5.00;2.50
69349;PMS5003;64554;43.452;4.934;2023-07-13T05:08:57;3.00;2.60;2.00
69349;PMS5003;64554;43.452;4.934;2023-07-13T05:11:24;2.60;2.60;1.60
69349;PMS5003;64554;43.452;4.934;2023-07-13T05:13:50;3.80;3.80;1.80
69349;PMS5003;64554;43.452;4.934;2023-07-13T05:16:17;5.00;5.00;3.00
69349;PMS5003;64554;43.452;4.934;2023-07-13T05:18:43;5.00;4.00;2.00
69349;PMS5003;64554;43.452;4.934;2023-07-13T05:21:11;3.20;3.20;2.20
69349;PMS5003;64554;43.452;4.934;2023-07-13T05:23:38;3.20;3.20;2.00
69349;PMS5003;64554;43.452;4.934;2023-07-13T05:26:05;3.60;3.00;2.00
69349;PMS5003;64554;43.452;4.934;2023-07-13T05:28:35;4.80;3.00;2.00
69349;PMS5003;64554;43.452;4.934;2023-07-13T05:31:02;2.80;2.80;1.80
69349;PMS5003;64554;43.452;4.934;2023-07-13T05:33:29;3.33;2.00;2.00
69349;PMS5003;64554;43.452;4.934;2023-07-13T05:35:55;2.60;2.60;1.60
69349;PMS5003;64554;43.452;4.934;2023-07-13T05:38:22;3.75;3.75;1.75
69349;PMS5003;64554;43.452;4.934;2023-07-13T05:40:49;2.50;2.50;2.00
69349;PMS5003;64554;43.452;4.934;2023-07-13T05:43:16;2.67;2.00;1.00
69349;PMS5003;64554;43.452;4.934;2023-07-13T05:45:42;4.75;2.75;1.75
69349;PMS5003;64554;43.452;4.934;2023-07-13T05:48:09;2.50;2.50;1.50
69349;PMS5003;64554;43.452;4.934;2023-07-13T05:50:36;1.60;1.60;1.00
69349;PMS5003;64554;43.452;4.934;2023-07-13T05:53:04;3.00;3.00;2.25
69349;PMS5003;64554;43.452;4.934;2023-07-13T05:55:31;5.80;2.20;1.60
69349;PMS5003;64554;43.452;4.934;2023-07-13T05:57:58;3.00;3.00;1.00
69349;PMS5003;64554;43.452;4.934;2023-07-13T06:00:25;4.00;3.60;0.80
69349;PMS5003;64554;43.452;4.934;2023-07-13T06:02:52;4.00;3.40;1.60
69349;PMS5003;64554;43.452;4.934;2023-07-13T06:05:20;2.00;2.00;1.00
69349;PMS5003;64554;43.452;4.934;2023-07-13T06:07:47;4.40;2.60;0.60
69349;PMS5003;64554;43.452;4.934;2023-07-13T06:10:14;3.00;2.40;1.40
69349;PMS5003;64554;43.452;4.934;2023-07-13T06:12:40;2.00;2.00;1.00
69349;PMS5003;64554;43.452;4.934;2023-07-13T06:15:07;4.67;2.67;1.00
69349;PMS5003;64554;43.452;4.934;2023-07-13T06:17:33;2.20;2.20;1.00
69349;PMS5003;64554;43.452;4.934;2023-07-13T06:20:00;1.00;1.00;1.00
69349;PMS5003;64554;43.452;4.934;2023-07-13T06:22:26;2.50;2.50;0.50
69349;PMS5003;64554;43.452;4.934;2023-07-13T06:24:53;3.40;3.40;2.00
69349;PMS5003;64554;43.452;4.934;2023-07-13T06:27:20;6.00;2.00;1.00
69349;PMS5003;64554;43.452;4.934;2023-07-13T06:29:46;1.00;1.00;0.00
69349;PMS5003;64554;43.452;4.934;2023-07-13T06:32:13;5.00;2.20;1.80
69349;PMS5003;64554;43.452;4.934;2023-07-13T06:34:39;2.00;2.00;1.00
69349;PMS5003;64554;43.452;4.934;2023-07-13T06:37:08;5.00;2.00;1.40
69349;PMS5003;64554;43.452;4.934;2023-07-13T06:39:35;2.00;2.00;1.00
69349;PMS5003;64554;43.452;4.934;2023-07-13T06:42:01;6.00;4.00;1.00
69349;PMS5003;64554;43.452;4.934;2023-07-13T06:44:28;3.50;2.00;1.00
69349;PMS5003;64554;43.452;4.934;2023-07-13T06:46:54;3.80;3.00;1.00
69349;PMS5003;64554;43.452;4.934;2023-07-13T06:49:21;2.40;2.40;0.80
69349;PMS5003;64554;43.452;4.934;2023-07-13T06:51:47;5.00;2.60;2.00
69349;PMS5003;64554;43.452;4.934;2023-07-13T06:54:15;1.00;1.00;0.00
69349;PMS5003;64554;43.452;4.934;2023-07-13T06:56:41;4.00;1.60;0.60
69349;PMS5003;64554;43.452;4.934;2023-07-13T06:59:08;3.67;2.00;1.00
69349;PMS5003;64554;43.452;4.934;2023-07-13T07:01:35;2.25;2.25;1.25
69349;PMS5003;64554;43.452;4.934;2023-07-13T07:04:03;1.80;1.80;0.80
69349;PMS5003;64554;43.452;4.934;2023-07-13T07:06:29;4.00;4.00;1.00
69349;PMS5003;64554;43.452;4.934;2023-07-13T07:08:56;3.40;2.00;1.00
69349;PMS5003;64554;43.452;4.934;2023-07-13T07:11:23;1.50;1.25;1.00
69349;PMS5003;64554;43.452;4.934;2023-07-13T07:13:51;1.00;1.00;0.00
69349;PMS5003;64554;43.452;4.934;2023-07-13T07:16:18;4.40;3.00;2.00
69349;PMS5003;64554;43.452;4.934;2023-07-13T07:18:45;3.00;1.00;1.00
69349;PMS5003;64554;43.452;4.934;2023-07-13T07:21:12;1.00;1.00;0.25
69349;PMS5003;64554;43.452;4.934;2023-07-13T07:23:39;2.20;2.20;1.80
69349;PMS5003;64554;43.452;4.934;2023-07-13T07:26:05;2.25;1.50;0.75
69349;PMS5003;64554;43.452;4.934;2023-07-13T07:28:35;1.00;1.00;0.00
69349;PMS5003;64554;43.452;4.934;2023-07-13T07:31:05;4.00;2.80;1.00
69349;PMS5003;64554;43.452;4.934;2023-07-13T07:33:34;1.00;1.00;1.00
69349;PMS5003;64554;43.452;4.934;2023-07-13T07:36:01;3.60;0.40;0.40
69349;PMS5003;64554;43.452;4.934;2023-07-13T07:38:31;4.00;3.00;1.00
69349;PMS5003;64554;43.452;4.934;2023-07-13T07:40:57;7.25;2.75;0.75
69349;PMS5003;64554;43.452;4.934;2023-07-13T07:43:27;5.00;0.50;0.00
69349;PMS5003;64554;43.452;4.934;2023-07-13T07:45:53;2.00;2.00;1.00
69349;PMS5003;64554;43.452;4.934;2023-07-13T07:48:20;2.75;2.00;1.00
69349;PMS5003;64554;43.452;4.934;2023-07-13T07:50:47;2.00;1.00;0.00
69349;PMS5003;64554;43.452;4.934;2023-07-13T07:53:13;7.00;2.50;1.00
69349;PMS5003;64554;43.452;4.934;2023-07-13T07:55:40;2.00;1.00;0.00
69349;PMS5003;64554;43.452;4.934;2023-07-13T07:58:26;5.00;1.00;0.00
69349;PMS5003;64554;43.452;4.934;2023-07-13T08:01:01;1.20;1.20;0.00
69349;PMS5003;64554;43.452;4.934;2023-07-13T08:03:31;0.00;0.00;0.00
69349;PMS5003;64554;43.452;4.934;2023-07-13T08:06:18;1.40;1.40;0.00
69349;PMS5003;64554;43.452;4.934;2023-07-13T08:08:49;0.00;0.00;0.00
69349;PMS5003;64554;43.452;4.934;2023-07-13T08:11:15;5.25;0.75;0.00
69349;PMS5003;64554;43.452;4.934;2023-07-13T08:13:45;0.00;0.00;0.00
69349;PMS5003;64554;43.452;4.934;2023-07-13T08:16:12;1.00;0.00;0.00
69349;PMS5003;64554;43.452;4.934;2023-07-13T08:18:38;0.00;0.00;0.00
69349;PMS5003;64554;43.452;4.934;2023-07-13T08:21:06;1.00;1.00;0.00
69349;PMS5003;64554;43.452;4.934;2023-07-13T08:23:34;1.00;1.00;0.00
69349;PMS5003;64554;43.452;4.934;2023-07-13T08:26:01;5.50;3.00;1.00
69349;PMS5003;64554;43.452;4.934;2023-07-13T08:28:27;7.00;4.40;2.00
69349;PMS5003;64554;43.452;4.934;2023-07-13T08:30:54;3.60;2.00;0.00
69349;PMS5003;64554;43.452;4.934;2023-07-13T08:33:21;0.25;0.00;0.00
69349;PMS5003;64554;43.452;4.934;2023-07-13T08:35:50;2.25;2.25;1.00
69349;PMS5003;64554;43.452;4.934;2023-07-13T08:38:17;4.60;1.40;1.00
69349;PMS5003;64554;43.452;4.934;2023-07-13T08:40:44;4.60;3.00;2.00
69349;PMS5003;64554;43.452;4.934;2023-07-13T08:43:15;2.00;2.00;1.00
69349;PMS5003;64554;43.452;4.934;2023-07-13T08:45:43;2.60;0.60;0.60
69349;PMS5003;64554;43.452;4.934;2023-07-13T08:48:14;3.60;2.00;0.80
69349;PMS5003;64554;43.452;4.934;2023-07-13T08:50:47;2.40;2.40;1.00
69349;PMS5003;64554;43.452;4.934;2023-07-13T08:53:29;0.60;0.60;0.60
69349;PMS5003;64554;43.452;4.934;2023-07-13T08:55:58;1.50;1.50;1.50
69349;PMS5003;64554;43.452;4.934;2023-07-13T08:58:27;2.00;2.00;0.00
69349;PMS5003;64554;43.452;4.934;2023-07-13T09:03:22;4.50;2.50;1.50
69349;PMS5003;64554;43.452;4.934;2023-07-13T09:05:54;1.40;1.40;1.00
69349;PMS5003;64554;43.452;4.934;2023-07-13T09:08:42;1.25;1.25;0.25
69349;PMS5003;64554;43.452;4.934;2023-07-13T09:13:43;0.00;0.00;0.00
69349;PMS5003;64554;43.452;4.934;2023-07-13T09:16:13;1.60;1.60;0.60
69349;PMS5003;64554;43.452;4.934;2023-07-13T09:18:50;1.00;1.00;0.60
69349;PMS5003;64554;43.452;4.934;2023-07-13T09:21:22;1.50;1.50;0.50
69349;PMS5003;64554;43.452;4.934;2023-07-13T09:23:52;1.50;1.50;0.00
69349;PMS5003;64554;43.452;4.934;2023-07-13T09:26:21;3.20;1.80;0.60
69349;PMS5003;64554;43.452;4.934;2023-07-13T09:28:52;1.20;0.80;0.40
69349;PMS5003;64554;43.452;4.934;2023-07-13T09:31:23;1.75;1.75;0.75
69349;PMS5003;64554;43.452;4.934;2023-07-13T09:33:50;1.40;1.40;0.40
69349;PMS5003;64554;43.452;4.934;2023-07-13T09:36:24;2.00;2.00;1.00
69349;PMS5003;64554;43.452;4.934;2023-07-13T09:41:47;2.25;0.50;0.50
69349;PMS5003;64554;43.452;4.934;2023-07-13T09:44:18;2.00;2.00;1.00
69349;PMS5003;64554;43.452;4.934;2023-07-13T09:46:45;1.40;1.40;0.40
69349;PMS5003;64554;43.452;4.934;2023-07-13T09:49:13;1.60;1.60;1.60
69349;PMS5003;64554;43.452;4.934;2023-07-13T09:51:40;1.75;1.75;0.75
69349;PMS5003;64554;43.452;4.934;2023-07-13T09:54:17;1.75;1.75;0.50
69349;PMS5003;64554;43.452;4.934;2023-07-13T09:56:44;1.40;1.40;1.40
69349;PMS5003;64554;43.452;4.934;2023-07-13T09:59:54;1.80;1.80;0.80
69349;PMS5003;64554;43.452;4.934;2023-07-13T10:02:01;2.00;1.00;0.00
69349;PMS5003;64554;43.452;4.934;2023-07-13T10:04:30;0.50;0.50;0.50
69349;PMS5003;64554;43.452;4.934;2023-07-13T10:07:06;1.75;1.75;0.75
69349;PMS5003;64554;43.452;4.934;2023-07-13T10:09:54;2.40;1.40;0.40
69349;PMS5003;64554;43.452;4.934;2023-07-13T10:12:21;1.40;1.40;0.40
69349;PMS5003;64554;43.452;4.934;2023-07-13T10:14:51;5.00;3.00;2.00
69349;PMS5003;64554;43.452;4.934;2023-07-13T10:17:33;1.00;1.00;0.25
69349;PMS5003;64554;43.452;4.934;2023-07-13T10:20:04;2.00;2.00;1.00
69349;PMS5003;64554;43.452;4.934;2023-07-13T10:25:13;1.75;1.75;1.00
69349;PMS5003;64554;43.452;4.934;2023-07-13T10:27:42;0.75;0.75;0.50
69349;PMS5003;64554;43.452;4.934;2023-07-13T10:30:11;1.40;1.40;0.60
69349;PMS5003;64554;43.452;4.934;2023-07-13T10:32:42;1.25;1.25;0.25
69349;PMS5003;64554;43.452;4.934;2023-07-13T10:35:10;1.60;1.60;0.60
69349;PMS5003;64554;43.452;4.934;2023-07-13T10:40:18;2.60;2.60;1.00
69349;PMS5003;64554;43.452;4.934;2023-07-13T10:42:46;1.20;1.20;0.60
69349;PMS5003;64554;43.452;4.934;2023-07-13T10:45:14;1.00;1.00;1.00
69349;PMS5003;64554;43.452;4.934;2023-07-13T10:47:42;1.40;1.40;1.00
69349;PMS5003;64554;43.452;4.934;2023-07-13T10:50:14;2.00;2.00;1.40
69349;PMS5003;64554;43.452;4.934;2023-07-13T10:52:42;2.00;2.00;1.00
69349;PMS5003;64554;43.452;4.934;2023-07-13T10:57:59;1.60;1.60;0.60
69349;PMS5003;64554;43.452;4.934;2023-07-13T11:00:26;0.00;0.00;0.00
69349;PMS5003;64554;43.452;4.934;2023-07-13T11:02:56;0.75;0.75;0.50
69349;PMS5003;64554;43.452;4.934;2023-07-13T11:05:28;0.00;0.00;0.00
69349;PMS5003;64554;43.452;4.934;2023-07-13T11:08:02;0.75;0.75;0.75
69349;PMS5003;64554;43.452;4.934;2023-07-13T11:13:37;2.20;2.20;1.00
69349;PMS5003;64554;43.452;4.934;2023-07-13T11:16:21;1.40;1.00;0.40
69349;PMS5003;64554;43.452;4.934;2023-07-13T11:21:29;2.25;1.25;0.50
69349;PMS5003;64554;43.452;4.934;2023-07-13T11:24:02;2.50;1.50;1.50
69349;PMS5003;64554;43.452;4.934;2023-07-13T11:26:43;2.20;2.20;1.40
69349;PMS5003;64554;43.452;4.934;2023-07-13T11:31:52;0.60;0.60;0.60
69349;PMS5003;64554;43.452;4.934;2023-07-13T11:34:33;2.40;2.40;1.40
69349;PMS5003;64554;43.452;4.934;2023-07-13T11:37:01;1.50;1.50;1.25
69349;PMS5003;64554;43.452;4.934;2023-07-13T11:39:35;2.80;2.80;1.40
69349;PMS5003;64554;43.452;4.934;2023-07-13T11:42:05;1.50;1.50;1.00
69349;PMS5003;64554;43.452;4.934;2023-07-13T11:44:35;1.50;1.50;0.50
69349;PMS5003;64554;43.452;4.934;2023-07-13T11:47:09;4.40;2.40;1.40
69349;PMS5003;64554;43.452;4.934;2023-07-13T11:49:44;5.50;3.25;2.25
69349;PMS5003;64554;43.452;4.934;2023-07-13T11:52:14;2.00;2.00;1.40
69349;PMS5003;64554;43.452;4.934;2023-07-13T11:54:49;2.50;1.00;0.50
69349;PMS5003;64554;43.452;4.934;2023-07-13T11:57:24;2.50;1.50;1.00
69349;PMS5003;64554;43.452;4.934;2023-07-13T11:59:52;3.40;1.60;0.60
69349;PMS5003;64554;43.452;4.934;2023-07-13T12:02:30;3.00;3.00;2.00
69349;PMS5003;64554;43.452;4.934;2023-07-13T12:04:57;3.00;2.00;1.00
69349;PMS5003;64554;43.452;4.934;2023-07-13T12:07:25;3.80;2.40;0.80
69349;PMS5003;64554;43.452;4.934;2023-07-13T12:09:59;3.60;1.60;1.60
69349;PMS5003;64554;43.452;4.934;2023-07-13T12:12:28;1.60;1.60;0.60
69349;PMS5003;64554;43.452;4.934;2023-07-13T12:14:55;1.00;1.00;1.00
69349;PMS5003;64554;43.452;4.934;2023-07-13T12:17:23;1.50;1.50;1.00
69349;PMS5003;64554;43.452;4.934;2023-07-13T12:19:51;1.00;1.00;0.75
69349;PMS5003;64554;43.452;4.934;2023-07-13T12:22:18;1.75;1.75;0.75
69349;PMS5003;64554;43.452;4.934;2023-07-13T12:24:47;4.00;2.60;1.40
69349;PMS5003;64554;43.452;4.934;2023-07-13T12:27:18;3.00;2.00;2.00
69349;PMS5003;64554;43.452;4.934;2023-07-13T12:29:49;3.40;3.40;1.40
69349;PMS5003;64554;43.452;4.934;2023-07-13T12:32:17;2.80;2.80;1.20
69349;PMS5003;64554;43.452;4.934;2023-07-13T12:35:02;2.75;2.75;1.25
69349;PMS5003;64554;43.452;4.934;2023-07-13T12:37:34;1.75;1.75;0.75
69349;PMS5003;64554;43.452;4.934;2023-07-13T12:40:00;3.00;3.00;1.75
69349;PMS5003;64554;43.452;4.934;2023-07-13T12:42:28;5.00;3.00;1.50
69349;PMS5003;64554;43.452;4.934;2023-07-13T12:44:59;1.00;1.00;0.40
69349;PMS5003;64554;43.452;4.934;2023-07-13T12:47:27;1.00;1.00;0.67
69349;PMS5003;64554;43.452;4.934;2023-07-13T12:49:55;4.67;3.00;2.00
69349;PMS5003;64554;43.452;4.934;2023-07-13T12:52:23;1.25;1.25;1.25
69349;PMS5003;64554;43.452;4.934;2023-07-13T12:54:57;3.00;3.00;2.00
69349;PMS5003;64554;43.452;4.934;2023-07-13T12:57:32;4.40;3.60;2.00
69349;PMS5003;64554;43.452;4.934;2023-07-13T12:59:58;2.25;2.25;1.25
69349;PMS5003;64554;43.452;4.934;2023-07-13T13:02:32;2.00;2.00;1.20
69349;PMS5003;64554;43.452;4.934;2023-07-13T13:05:01;3.20;2.60;1.20
69349;PMS5003;64554;43.452;4.934;2023-07-13T13:07:29;3.20;2.00;2.00
69349;PMS5003;64554;43.452;4.934;2023-07-13T13:09:56;2.50;2.50;1.50
69349;PMS5003;64554;43.452;4.934;2023-07-13T13:12:22;5.00;3.60;2.60
69349;PMS5003;64554;43.452;4.934;2023-07-13T13:14:52;1.50;1.50;1.50
69349;PMS5003;64554;43.452;4.934;2023-07-13T13:17:20;2.60;2.60;1.40
69349;PMS5003;64554;43.452;4.934;2023-07-13T13:19:47;1.40;1.40;1.00
69349;PMS5003;64554;43.452;4.934;2023-07-13T13:22:14;2.00;2.00;2.00
69349;PMS5003;64554;43.452;4.934;2023-07-13T13:24:41;2.00;2.00;1.00
69349;PMS5003;64554;43.452;4.934;2023-07-13T13:27:11;1.40;1.40;1.40
69349;PMS5003;64554;43.452;4.934;2023-07-13T13:29:41;3.20;3.20;1.20
69349;PMS5003;64554;43.452;4.934;2023-07-13T13:32:09;1.80;1.80;1.60
69349;PMS5003;64554;43.452;4.934;2023-07-13T13:34:37;1.00;1.00;1.00
69349;PMS5003;64554;43.452;4.934;2023-07-13T13:37:04;2.00;2.00;1.60
69349;PMS5003;64554;43.452;4.934;2023-07-13T13:39:36;3.00;1.50;1.00
69349;PMS5003;64554;43.452;4.934;2023-07-13T13:42:10;2.50;2.50;1.50
69349;PMS5003;64554;43.452;4.934;2023-07-13T13:44:36;2.75;2.75;1.75
69349;PMS5003;64554;43.452;4.934;2023-07-13T13:47:03;1.80;1.80;1.60
69349;PMS5003;64554;43.452;4.934;2023-07-13T13:49:30;2.80;2.80;1.80
69349;PMS5003;64554;43.452;4.934;2023-07-13T13:51:57;4.00;4.00;2.00
69349;PMS5003;64554;43.452;4.934;2023-07-13T13:54:24;2.40;2.40;1.40
69349;PMS5003;64554;43.452;4.934;2023-07-13T13:56:52;3.40;2.40;1.40
69349;PMS5003;64554;43.452;4.934;2023-07-13T13:59:19;2.00;2.00;1.25
69349;PMS5003;64554;43.452;4.934;2023-07-13T14:01:46;3.00;3.00;3.00
69349;PMS5003;64554;43.452;4.934;2023-07-13T14:04:20;3.00;3.00;2.00
69349;PMS5003;64554;43.452;4.934;2023-07-13T14:06:47;2.00;2.00;2.00
69349;PMS5003;64554;43.452;4.934;2023-07-13T14:09:14;3.20;3.20;2.00
69349;PMS5003;64554;43.452;4.934;2023-07-13T14:11:42;2.60;2.60;1.60
69349;PMS5003;64554;43.452;4.934;2023-07-13T14:14:12;4.00;2.00;1.50
69349;PMS5003;64554;43.452;4.934;2023-07-13T14:16:40;2.40;2.40;1.40
69349;PMS5003;64554;43.452;4.934;2023-07-13T14:19:12;2.75;2.75;1.75
69349;PMS5003;64554;43.452;4.934;2023-07-13T14:21:40;5.00;3.00;1.00
69349;PMS5003;64554;43.452;4.934;2023-07-13T14:24:07;2.50;2.50;1.50
69349;PMS5003;64554;43.452;4.934;2023-07-13T14:26:37;2.40;2.40;1.40
69349;PMS5003;64554;43.452;4.934;2023-07-13T14:29:05;2.50;2.50;2.00
69349;PMS5003;64554;43.452;4.934;2023-07-13T14:31:38;2.40;2.40;1.40
69349;PMS5003;64554;43.452;4.934;2023-07-13T14:34:04;3.00;3.00;2.00
69349;PMS5003;64554;43.452;4.934;2023-07-13T14:36:32;1.80;1.80;1.00
69349;PMS5003;64554;43.452;4.934;2023-07-13T14:39:00;2.25;2.25;1.75
69349;PMS5003;64554;43.452;4.934;2023-07-13T14:41:26;2.00;2.00;2.00
69349;PMS5003;64554;43.452;4.934;2023-07-13T14:43:53;1.80;1.80;1.00
69349;PMS5003;64554;43.452;4.934;2023-07-13T14:46:28;1.40;1.40;0.40
69349;PMS5003;64554;43.452;4.934;2023-07-13T14:49:02;4.00;4.00;3.00
69349;PMS5003;64554;43.452;4.934;2023-07-13T14:51:30;4.80;4.80;2.80
69349;PMS5003;64554;43.452;4.934;2023-07-13T14:53:57;3.20;2.00;1.00
69349;PMS5003;64554;43.452;4.934;2023-07-13T14:56:24;2.60;2.60;2.20
69349;PMS5003;64554;43.452;4.934;2023-07-13T14:58:52;2.60;2.60;2.00
69349;PMS5003;64554;43.452;4.934;2023-07-13T15:01:19;3.40;3.40;2.00